Time;durP1;ratioP1;P1;durP2;ratioP2;P2;SDS_P1;SDS_P2;PMS_P1;PMS_P2;Temp;Humidity;BMP_temperature;BMP_pressure;BME280_temperature;BME280_humidity;BME280_pressure;Samples;Min_cycle;Max_cycle;Signal;HPM_P1;HPM_P2
2023/03/17 05:02:01;;;;;;;12.27;7.62;;;;;;;2.91;53.73;101461.31;5606359;31;78994;-55
2023/03/17 05:05:04;;;;;;;16.67;7.60;;;;;;;2.91;53.73;101461.31;5584005;32;33577;-53
2023/03/17 05:08:07;;;;;;;11.25;7.07;;;;;;;2.19;56.68;101463.59;5583682;32;33558;-55
2023/03/17 05:11:11;;;;;;;13.73;6.85;;;;;;;2.42;69.49;101465.94;5583445;31;33563;-54
2023/03/17 05:14:14;;;;;;;12.35;6.70;;;;;;;2.35;58.57;101465.91;5583853;32;34333;-54
2023/03/17 05:17:17;;;;;;;12.63;6.95;;;;;;;2.39;61.93;101471.63;5564583;32;33499;-55
2023/03/17 05:20:19;;;;;;;13.05;7.50;;;;;;;2.35;68.19;101460.63;5564045;32;33573;-54
2023/03/17 05:23:22;;;;;;;11.70;6.22;;;;;;;2.37;73.41;101459.59;5563797;32;33643;-54
2023/03/17 05:26:24;;;;;;;15.65;6.85;;;;;;;2.52;56.41;101460.25;5564100;32;33518;-54
2023/03/17 05:29:27;;;;;;;13.15;7.62;;;;;;;2.51;58.84;101462.06;5564127;32;34256;-54
2023/03/17 05:32:30;;;;;;;14.30;7.45;;;;;;;2.81;80.71;101467.84;5564140;32;33760;-54
2023/03/17 05:35:33;;;;;;;12.90;7.53;;;;;;;2.78;58.60;101467.41;5564011;32;33586;-54
2023/03/17 05:38:35;;;;;;;15.63;7.53;;;;;;;2.62;60.35;101481.03;5563752;32;33684;-55
2023/03/17 05:41:38;;;;;;;16.85;9.65;;;;;;;2.89;54.96;101479.25;5563930;32;33807;-54
2023/03/17 05:44:40;;;;;;;13.48;8.82;;;;;;;2.98;53.90;101491.25;5563802;32;33247;-54
2023/03/17 05:47:42;;;;;;;13.52;9.15;;;;;;;3.07;63.79;101482.09;5563819;32;34358;-54
2023/03/17 05:50:45;;;;;;;13.18;8.43;;;;;;;2.79;71.81;101480.47;5563508;32;33143;-54
2023/03/17 05:53:48;;;;;;;16.52;8.57;;;;;;;2.90;56.95;101475.56;5563908;32;33555;-54
2023/03/17 05:56:50;;;;;;;16.05;8.73;;;;;;;2.96;62.11;101472.12;5563891;32;34236;-54
2023/03/17 05:59:53;;;;;;;17.20;9.27;;;;;;;2.98;70.86;101475.38;5563577;32;33641;-54
2023/03/17 06:02:55;;;;;;;16.17;8.18;;;;;;;3.17;57.67;101468.44;5563506;32;33602;-54
2023/03/17 06:05:58;;;;;;;17.75;9.43;;;;;;;3.35;53.29;101473.16;5562027;32;33643;-55
2023/03/17 06:09:00;;;;;;;15.90;8.60;;;;;;;3.37;54.73;101473.75;5562937;32;33397;-54
2023/03/17 06:12:05;;;;;;;13.85;8.32;;;;;;;3.52;54.16;101477.00;5556077;32;33613;-54
2023/03/17 06:15:08;;;;;;;14.32;8.68;;;;;;;3.59;55.85;101474.34;5550083;32;33722;-54
2023/03/17 06:18:11;;;;;;;16.50;8.88;;;;;;;3.65;55.03;101476.97;5550210;32;33577;-55
2023/03/17 06:21:13;;;;;;;14.45;8.23;;;;;;;3.84;53.12;101472.66;5550423;32;33756;-53
2023/03/17 06:24:16;;;;;;;17.70;9.07;;;;;;;3.76;53.67;101478.97;5550250;32;34249;-52
2023/03/17 06:27:18;;;;;;;15.80;8.50;;;;;;;4.12;68.25;101487.44;5549302;32;34341;-53
2023/03/17 06:30:21;;;;;;;16.58;9.30;;;;;;;4.22;55.43;101482.50;5549764;32;34288;-53
2023/03/17 06:33:24;;;;;;;17.23;9.23;;;;;;;4.56;51.97;101483.16;5550295;32;33708;-53
2023/03/17 06:36:27;;;;;;;15.75;8.82;;;;;;;4.61;52.41;101486.81;5549095;32;34222;-53
2023/03/17 06:39:30;;;;;;;18.77;9.43;;;;;;;4.57;51.76;101485.63;5550057;32;33928;-53
2023/03/17 06:42:32;;;;;;;22.95;10.55;;;;;;;4.75;52.18;101484.06;5549785;32;33658;-53
2023/03/17 06:45:34;;;;;;;17.60;8.90;;;;;;;4.88;53.95;101486.62;5549622;32;34272;-53
2023/03/17 06:48:37;;;;;;;18.58;10.23;;;;;;;5.12;52.21;101491.16;5548675;32;34411;-52
2023/03/17 06:51:39;;;;;;;20.12;10.48;;;;;;;5.37;50.74;101493.81;5549643;32;33747;-54
2023/03/17 06:54:43;;;;;;;14.30;9.40;;;;;;;5.54;50.59;101491.41;5547936;32;34289;-55
2023/03/17 06:57:45;;;;;;;19.23;10.88;;;;;;;5.69;52.38;101496.38;5550075;32;34391;-55
2023/03/17 07:00:52;;;;;;;16.00;10.77;;;;;;;5.74;62.54;101501.06;5549244;32;34264;-55
2023/03/17 07:03:55;;;;;;;21.37;10.77;;;;;;;5.87;50.60;101492.94;5550601;32;33773;-54
2023/03/17 07:06:57;;;;;;;16.90;10.63;;;;;;;6.14;51.86;101495.31;5566351;32;34306;-54
2023/03/17 07:09:59;;;;;;;21.52;9.20;;;;;;;6.70;69.41;101513.66;5568383;32;34347;-55
2023/03/17 07:13:03;;;;;;;16.50;8.50;;;;;;;6.76;50.18;101506.59;5563915;32;33727;-54
2023/03/17 07:16:07;;;;;;;17.30;8.40;;;;;;;7.07;71.27;101506.31;5558968;32;34299;-55
2023/03/17 07:19:09;;;;;;;14.40;8.40;;;;;;;7.22;49.61;101516.56;5555376;32;34057;-55
2023/03/17 07:22:12;;;;;;;12.73;8.13;;;;;;;7.37;60.05;101517.97;5555798;32;34931;-54
2023/03/17 07:25:14;;;;;;;21.75;8.63;;;;;;;7.49;75.25;101526.81;5559253;32;34982;-55
2023/03/17 07:28:18;;;;;;;16.75;8.40;;;;;;;7.45;49.81;101518.44;5559027;32;33715;-55
2023/03/17 07:31:22;;;;;;;19.00;9.88;;;;;;;7.66;53.58;101524.25;5558825;32;33686;-55
2023/03/17 07:34:24;;;;;;;18.48;10.27;;;;;;;7.48;44.76;101514.47;5558948;32;33892;-55
2023/03/17 07:37:26;;;;;;;16.60;9.57;;;;;;;7.79;64.47;101517.87;5548658;32;33434;-55
2023/03/17 07:40:29;;;;;;;15.65;9.95;;;;;;;7.82;55.37;101520.88;5556210;32;33868;-55
2023/03/17 07:43:32;;;;;;;18.15;10.27;;;;;;;7.88;56.30;101519.09;5553573;32;33595;-54
2023/03/17 07:46:34;;;;;;;17.70;10.00;;;;;;;8.04;58.93;101523.72;5555683;32;33981;-54
2023/03/17 07:49:37;;;;;;;16.67;9.98;;;;;;;8.10;56.77;101525.47;5558933;32;33821;-57
2023/03/17 07:52:43;;;;;;;19.80;10.82;;;;;;;8.29;50.92;101531.47;5552518;32;33226;-57
2023/03/17 07:55:45;;;;;;;20.60;9.45;;;;;;;8.09;45.33;101529.19;5549104;32;33683;-57
2023/03/17 07:58:48;;;;;;;16.48;9.98;;;;;;;8.05;43.86;101524.56;5554828;32;33630;-57
2023/03/17 08:01:50;;;;;;;15.10;9.70;;;;;;;8.03;44.37;101513.28;5549799;32;34331;-54
2023/03/17 08:04:53;;;;;;;16.00;8.95;;;;;;;8.08;44.49;101524.91;5556792;32;33244;-54
2023/03/17 08:07:55;;;;;;;12.40;8.25;;;;;;;8.04;47.11;101522.91;5549707;32;33679;-55
2023/03/17 08:11:04;;;;;;;13.90;8.55;;;;;;;8.30;46.95;101514.38;5556537;32;33684;-54
2023/03/17 08:14:06;;;;;;;15.57;7.68;;;;;;;8.24;45.00;101510.81;5552410;32;34408;-57
2023/03/17 08:17:09;;;;;;;13.77;7.57;;;;;;;8.66;65.44;101515.09;5555698;32;33673;-56
2023/03/17 08:20:11;;;;;;;14.95;7.20;;;;;;;8.80;46.07;101505.72;5560705;32;32393;-57
2023/03/17 08:23:14;;;;;;;11.90;6.55;;;;;;;8.93;47.77;101502.75;5559844;32;33245;-57
2023/03/17 08:26:17;;;;;;;13.07;7.20;;;;;;;8.86;58.17;101504.78;5552824;32;33764;-56
2023/03/17 08:29:19;;;;;;;11.32;6.15;;;;;;;9.15;48.99;101510.06;5550347;32;33686;-57
2023/03/17 08:32:22;;;;;;;7.35;5.03;;;;;;;8.94;52.95;101504.37;5557269;32;33586;-57
2023/03/17 08:35:24;;;;;;;10.10;5.15;;;;;;;9.06;46.33;101490.94;5549285;32;33239;-57
2023/03/17 08:38:27;;;;;;;7.60;4.22;;;;;;;9.01;40.94;101482.84;5552264;32;32061;-57
2023/03/17 08:41:30;;;;;;;7.70;4.53;;;;;;;9.16;44.34;101490.28;5548519;32;33664;-57
2023/03/17 08:44:33;;;;;;;6.55;4.00;;;;;;;9.24;43.68;101497.91;5555485;32;33661;-57
2023/03/17 08:47:37;;;;;;;10.88;3.95;;;;;;;9.56;47.20;101499.97;5557252;32;33672;-57
2023/03/17 08:50:39;;;;;;;10.55;4.10;;;;;;;9.52;51.17;101501.53;5554682;32;34808;-56
2023/03/17 08:53:42;;;;;;;7.07;4.20;;;;;;;9.36;62.70;101500.50;5557199;32;33593;-57
2023/03/17 08:56:44;;;;;;;10.65;4.18;;;;;;;9.78;63.47;101503.53;5551218;32;33620;-57
2023/03/17 08:59:46;;;;;;;7.90;3.92;;;;;;;9.76;60.11;101489.56;5559818;32;33680;-57
2023/03/17 09:02:49;;;;;;;9.05;4.25;;;;;;;9.71;40.15;101491.37;5551408;32;33787;-57
2023/03/17 09:05:52;;;;;;;7.68;4.10;;;;;;;9.74;39.04;101493.56;5556265;32;34445;-57
2023/03/17 09:08:54;;;;;;;7.22;3.70;;;;;;;9.50;38.61;101492.94;5564867;32;33218;-57
2023/03/17 09:11:57;;;;;;;6.55;3.80;;;;;;;9.59;39.10;101491.47;5559065;32;33617;-57
2023/03/17 09:14:59;;;;;;;8.95;4.10;;;;;;;9.70;47.95;101490.56;5554302;32;32975;-57
2023/03/17 09:18:02;;;;;;;5.55;3.70;;;;;;;9.69;47.37;101490.78;5547870;32;33676;-57
2023/03/17 09:21:07;;;;;;;9.27;4.03;;;;;;;10.18;45.46;101494.37;5549356;32;33651;-57
2023/03/17 09:24:10;;;;;;;8.75;3.90;;;;;;;10.24;50.48;101485.34;5554291;32;33534;-57
2023/03/17 09:27:12;;;;;;;5.95;3.92;;;;;;;10.01;34.52;101483.72;5554945;32;32005;-56
2023/03/17 09:30:16;;;;;;;10.93;4.00;;;;;;;9.96;54.24;101480.16;5553833;32;33757;-57
2023/03/17 09:33:18;;;;;;;7.53;3.95;;;;;;;9.69;35.54;101477.41;5561758;32;32309;-57
2023/03/17 09:36:23;;;;;;;7.28;3.70;;;;;;;9.75;62.32;101481.78;5561269;32;34276;-57
2023/03/17 09:39:26;;;;;;;10.45;4.18;;;;;;;9.84;47.62;101474.94;5560043;32;33602;-55
2023/03/17 09:42:48;;;;;;;7.07;4.00;;;;;;;10.14;55.96;101479.88;5561240;32;32552;-55
2023/03/17 09:45:51;;;;;;;6.53;4.45;;;;;;;10.46;53.06;101477.31;5558061;32;34224;-55
2023/03/17 11:55:34;;;;;;;11.10;4.60;;;;;;;11.35;36.98;101327.44;5552590;32;34157;-56
2023/03/17 11:58:43;;;;;;;6.35;3.65;;;;;;;11.28;34.54;101316.97;5549354;32;34360;-55
2023/03/17 12:02:03;;;;;;;8.80;3.90;;;;;;;11.49;42.97;101321.34;5530774;32;33633;-55
2023/03/17 12:05:16;;;;;;;8.27;3.92;;;;;;;11.60;44.01;101310.63;5539775;32;34357;-56
2023/03/17 12:08:49;;;;;;;7.68;3.70;;;;;;;11.61;36.70;101312.25;5549718;32;33917;-56
2023/03/17 12:11:54;;;;;;;4.87;3.55;;;;;;;11.60;41.37;101297.22;5569658;32;33724;-56
2023/03/17 12:14:59;;;;;;;11.40;4.18;;;;;;;11.45;32.33;101279.16;5569398;32;33636;-56
2023/03/17 12:18:09;;;;;;;5.95;3.80;;;;;;;11.62;40.19;101282.47;5569253;32;34239;-57
2023/03/17 12:21:37;;;;;;;7.78;4.00;;;;;;;11.37;36.13;101287.75;5559050;31;33635;-55
2023/03/17 12:24:46;;;;;;;6.00;3.40;;;;;;;11.34;48.43;101281.00;5544815;31;33758;-56
2023/03/17 12:28:04;;;;;;;8.07;3.80;;;;;;;11.46;37.80;101278.13;5566070;31;33004;-56
2023/03/17 12:31:11;;;;;;;6.95;4.22;;;;;;;11.56;35.90;101272.78;5558011;31;33578;-55
2023/03/17 12:34:42;;;;;;;7.32;4.28;;;;;;;11.64;34.45;101274.13;5571663;31;34311;-56
2023/03/17 12:37:45;;;;;;;7.40;3.62;;;;;;;11.42;33.33;101264.41;5569514;31;33330;-56
2023/03/17 12:41:17;;;;;;;8.35;4.30;;;;;;;11.47;33.88;101261.72;5585341;31;33668;-55
2023/03/17 12:44:29;;;;;;;7.93;4.05;;;;;;;11.34;34.33;101258.75;5551190;31;34441;-55
2023/03/17 12:47:43;;;;;;;8.05;3.95;;;;;;;11.41;38.78;101257.41;5562516;31;34383;-56
2023/03/17 12:51:16;;;;;;;7.62;4.32;;;;;;;11.56;45.63;101248.59;5579023;31;33810;-56
2023/03/17 12:54:25;;;;;;;7.50;4.22;;;;;;;11.79;33.00;101246.47;5575573;31;34241;-56
2023/03/17 12:57:37;;;;;;;8.85;4.03;;;;;;;11.84;40.82;101235.75;5567549;31;34284;-56
2023/03/17 13:01:02;;;;;;;7.57;3.70;;;;;;;11.84;34.79;101235.75;5552836;31;33673;-55
2023/03/17 13:04:22;;;;;;;5.93;3.65;;;;;;;11.96;50.65;101244.38;5561748;31;34290;-56
2023/03/17 13:07:58;;;;;;;6.70;3.92;;;;;;;11.97;35.84;101227.97;5564111;31;34057;-56
2023/03/17 13:11:32;;;;;;;7.03;3.92;;;;;;;12.14;36.73;101238.47;5552381;31;34383;-56
2023/03/17 13:14:46;;;;;;;7.60;3.58;;;;;;;11.80;32.11;101224.72;5554492;32;34229;-55
2023/03/17 13:17:48;;;;;;;6.32;3.80;;;;;;;11.69;38.95;101218.53;5569011;32;33648;-56
2023/03/17 13:21:10;;;;;;;6.93;4.22;;;;;;;11.91;35.85;101226.37;5568665;32;34016;-56
2023/03/17 13:24:15;;;;;;;6.90;4.35;;;;;;;11.97;46.58;101227.97;5567398;32;34304;-55
2023/03/17 13:27:30;;;;;;;8.63;4.25;;;;;;;11.77;32.24;101207.25;5550350;31;33846;-56
2023/03/17 13:30:35;;;;;;;6.70;3.78;;;;;;;11.64;34.13;101212.34;5564586;31;33693;-56
2023/03/17 13:34:01;;;;;;;7.43;3.67;;;;;;;11.77;32.47;101211.84;5561148;31;33716;-56
2023/03/17 13:37:21;;;;;;;7.72;4.20;;;;;;;11.97;32.70;101206.50;5565702;32;34054;-55
2023/03/17 13:40:38;;;;;;;9.35;4.45;;;;;;;11.80;33.66;101213.97;5549661;32;33715;-56
2023/03/17 13:43:59;;;;;;;9.07;4.22;;;;;;;11.98;35.69;101209.97;5557888;32;33599;-56
2023/03/17 13:47:24;;;;;;;9.43;4.32;;;;;;;12.00;51.51;101210.53;5549345;32;33737;-56
2023/03/17 13:50:31;;;;;;;8.93;4.18;;;;;;;11.91;31.37;101212.13;5553060;32;33870;-56
2023/03/17 13:53:45;;;;;;;8.63;4.12;;;;;;;11.76;32.27;101211.03;5554429;32;34227;-55
2023/03/17 13:56:49;;;;;;;7.03;3.65;;;;;;;11.80;39.17;101207.81;5565438;32;33655;-56
2023/03/17 14:00:23;;;;;;;11.38;4.80;;;;;;;12.04;53.61;101206.22;5553974;32;33645;-56
2023/03/17 14:03:32;;;;;;;8.23;4.50;;;;;;;12.04;37.53;101200.84;5545373;32;33492;-56
2023/03/17 14:06:37;;;;;;;6.60;4.10;;;;;;;12.07;33.27;101194.94;5556867;31;33784;-56
2023/03/17 14:09:41;;;;;;;9.93;5.07;;;;;;;11.89;45.02;101193.59;5552742;32;34302;-55
2023/03/17 14:13:05;;;;;;;7.35;4.25;;;;;;;11.88;31.44;101193.84;5555869;32;34403;-55
2023/03/17 14:16:15;;;;;;;7.37;4.55;;;;;;;11.98;57.13;101191.97;5549052;32;33031;-56
2023/03/17 14:19:27;;;;;;;7.47;4.47;;;;;;;12.11;39.69;101181.75;5548853;32;34378;-56
2023/03/17 14:22:29;;;;;;;7.37;4.43;;;;;;;11.85;31.33;101170.22;5558518;32;34273;-56
2023/03/17 14:25:36;;;;;;;9.48;4.55;;;;;;;12.04;50.93;101167.78;5548496;32;33864;-55
2023/03/17 14:28:39;;;;;;;7.32;4.43;;;;;;;12.05;33.38;101161.34;5558724;31;34260;-54
2023/03/17 14:31:46;;;;;;;7.40;4.32;;;;;;;12.03;47.59;101167.00;5554121;32;33733;-56
2023/03/17 14:34:58;;;;;;;8.40;4.62;;;;;;;11.84;31.55;101157.84;5561321;32;33714;-56
2023/03/17 14:38:01;;;;;;;9.00;5.68;;;;;;;11.80;32.96;101152.19;5568366;32;34300;-56
2023/03/17 14:41:19;;;;;;;7.07;4.18;;;;;;;11.79;33.04;101155.13;5570259;31;33591;-56
2023/03/17 14:44:21;;;;;;;7.30;4.32;;;;;;;11.71;32.08;101151.13;5587158;31;34316;-56
2023/03/17 14:47:24;;;;;;;6.55;3.97;;;;;;;11.61;32.43;101143.84;5581153;31;33693;-55
2023/03/17 14:50:31;;;;;;;7.72;4.62;;;;;;;11.66;36.26;101148.44;5553147;31;34295;-56
2023/03/17 14:53:38;;;;;;;10.40;4.35;;;;;;;11.83;42.00;101140.91;5555965;32;33607;-56
2023/03/17 14:56:45;;;;;;;8.52;4.40;;;;;;;11.84;36.01;101128.28;5548497;32;33273;-56
2023/03/17 15:00:13;;;;;;;10.32;4.78;;;;;;;12.03;51.52;101125.88;5547950;32;33306;-56
2023/03/17 15:03:19;;;;;;;8.82;4.35;;;;;;;11.93;34.48;101118.63;5548424;32;34368;-56
2023/03/17 15:06:26;;;;;;;7.35;4.22;;;;;;;11.91;32.84;101110.84;5548481;32;34327;-56
2023/03/17 15:09:35;;;;;;;11.63;5.07;;;;;;;11.84;35.33;101115.69;5548182;32;33831;-55
2023/03/17 15:12:37;;;;;;;7.22;4.03;;;;;;;11.86;34.28;101110.84;5550151;32;34369;-55
2023/03/17 15:15:41;;;;;;;8.18;4.65;;;;;;;11.96;34.24;101112.72;5536995;32;33580;-56
2023/03/17 15:18:45;;;;;;;8.48;4.50;;;;;;;11.81;34.13;101110.81;5551062;32;34425;-56
2023/03/17 15:21:48;;;;;;;12.43;4.40;;;;;;;11.84;34.30;101107.63;5550686;32;34426;-56
2023/03/17 15:25:13;;;;;;;11.25;5.07;;;;;;;11.92;49.76;101104.41;5550753;32;34003;-56
2023/03/17 15:28:18;;;;;;;9.52;4.87;;;;;;;11.88;35.99;101097.13;5539492;32;33746;-56
2023/03/17 15:31:23;;;;;;;13.13;5.32;;;;;;;11.70;36.10;101085.84;5551018;32;34344;-56
2023/03/17 15:34:29;;;;;;;11.00;4.62;;;;;;;11.76;34.32;101098.22;5550680;32;33905;-56
2023/03/17 15:37:33;;;;;;;9.35;4.90;;;;;;;11.71;38.46;101092.03;5549704;32;33546;-56
2023/03/17 15:40:35;;;;;;;11.02;5.15;;;;;;;11.67;31.88;101086.38;5549824;32;33823;-56
2023/03/17 15:43:37;;;;;;;6.53;4.20;;;;;;;11.49;32.03;101095.00;5550575;32;34242;-56
2023/03/17 15:46:40;;;;;;;7.53;4.62;;;;;;;11.43;43.10;101088.81;5536084;32;33913;-55
2023/03/17 15:49:44;;;;;;;10.48;4.97;;;;;;;11.55;52.74;101088.53;5550286;32;33572;-56
2023/03/17 15:52:47;;;;;;;9.70;4.97;;;;;;;11.57;36.06;101082.91;5550536;32;33808;-57
2023/03/17 15:55:50;;;;;;;9.90;5.00;;;;;;;11.55;34.34;101080.47;5552850;32;33662;-56
2023/03/17 15:58:52;;;;;;;8.65;4.90;;;;;;;11.46;35.19;101080.22;5570009;32;33725;-57
2023/03/17 16:01:54;;;;;;;10.27;5.20;;;;;;;11.49;35.04;101078.91;5569709;32;33181;-56
2023/03/17 16:05:06;;;;;;;9.38;4.93;;;;;;;11.47;35.21;101076.47;5569704;32;33674;-56
2023/03/17 16:08:16;;;;;;;13.02;4.82;;;;;;;11.45;33.43;101075.13;5569912;32;33688;-55
2023/03/17 16:11:26;;;;;;;10.13;4.60;;;;;;;11.37;33.25;101081.03;5570193;32;33792;-56
2023/03/17 16:14:29;;;;;;;9.75;5.00;;;;;;;11.34;37.84;101082.38;5570122;32;33772;-56
2023/03/17 16:17:31;;;;;;;8.52;4.70;;;;;;;11.20;34.61;101074.03;5569915;32;34302;-56
2023/03/17 16:20:40;;;;;;;10.10;5.18;;;;;;;11.33;44.85;101082.66;5570054;32;33670;-56
2023/03/17 16:23:43;;;;;;;10.38;4.93;;;;;;;11.28;39.58;101086.91;5569704;32;34329;-56
2023/03/17 16:26:45;;;;;;;13.60;4.93;;;;;;;11.21;34.79;101085.56;5569241;32;33855;-56
